sensor_id;sensor_type;location;lat;lon;timestamp;P1;durP1;ratioP1;P2;durP2;ratioP2
37231;SDS011;23125;48.156;15.954;2023-12-14T00:00:29;12.48;;;7.90;;
37231;SDS011;23125;48.156;15.954;2023-12-14T00:02:56;21.88;;;11.25;;
37231;SDS011;23125;48.156;15.954;2023-12-14T00:05:23;21.83;;;11.75;;
37231;SDS011;23125;48.156;15.954;2023-12-14T00:07:48;18.83;;;9.63;;
37231;SDS011;23125;48.156;15.954;2023-12-14T00:10:14;14.82;;;8.38;;
37231;SDS011;23125;48.156;15.954;2023-12-14T00:12:43;12.95;;;7.70;;
37231;SDS011;23125;48.156;15.954;2023-12-14T00:15:09;12.63;;;7.90;;
37231;SDS011;23125;48.156;15.954;2023-12-14T00:17:35;13.02;;;8.13;;
37231;SDS011;23125;48.156;15.954;2023-12-14T00:20:01;11.98;;;7.25;;
37231;SDS011;23125;48.156;15.954;2023-12-14T00:22:28;10.60;;;7.25;;
37231;SDS011;23125;48.156;15.954;2023-12-14T00:24:54;10.45;;;7.25;;
37231;SDS011;23125;48.156;15.954;2023-12-14T00:27:20;11.52;;;7.13;;
37231;SDS011;23125;48.156;15.954;2023-12-14T00:29:46;12.40;;;6.90;;
37231;SDS011;23125;48.156;15.954;2023-12-14T00:32:11;10.98;;;7.22;;
37231;SDS011;23125;48.156;15.954;2023-12-14T00:34:37;9.50;;;6.40;;
37231;SDS011;23125;48.156;15.954;2023-12-14T00:37:04;9.75;;;6.15;;
37231;SDS011;23125;48.156;15.954;2023-12-14T00:39:29;9.52;;;6.68;;
37231;SDS011;23125;48.156;15.954;2023-12-14T00:41:55;9.70;;;6.53;;
37231;SDS011;23125;48.156;15.954;2023-12-14T00:44:21;10.55;;;6.38;;
37231;SDS011;23125;48.156;15.954;2023-12-14T00:46:47;8.65;;;6.05;;
37231;SDS011;23125;48.156;15.954;2023-12-14T00:49:13;9.77;;;6.05;;
37231;SDS011;23125;48.156;15.954;2023-12-14T00:51:39;10.73;;;5.97;;
37231;SDS011;23125;48.156;15.954;2023-12-14T00:54:05;8.25;;;5.72;;
37231;SDS011;23125;48.156;15.954;2023-12-14T00:56:31;9.13;;;6.35;;
37231;SDS011;23125;48.156;15.954;2023-12-14T00:58:57;8.95;;;6.32;;
37231;SDS011;23125;48.156;15.954;2023-12-14T01:01:23;13.20;;;5.75;;
37231;SDS011;23125;48.156;15.954;2023-12-14T01:03:49;9.00;;;5.85;;
37231;SDS011;23125;48.156;15.954;2023-12-14T01:06:15;11.07;;;6.43;;
37231;SDS011;23125;48.156;15.954;2023-12-14T01:08:41;9.13;;;5.85;;
37231;SDS011;23125;48.156;15.954;2023-12-14T01:11:07;9.23;;;6.28;;
37231;SDS011;23125;48.156;15.954;2023-12-14T01:13:32;9.32;;;5.93;;
37231;SDS011;23125;48.156;15.954;2023-12-14T01:15:58;8.55;;;6.35;;
37231;SDS011;23125;48.156;15.954;2023-12-14T01:18:24;9.38;;;6.53;;
37231;SDS011;23125;48.156;15.954;2023-12-14T01:20:50;10.00;;;6.03;;
37231;SDS011;23125;48.156;15.954;2023-12-14T01:23:16;9.40;;;6.35;;
37231;SDS011;23125;48.156;15.954;2023-12-14T01:25:42;9.13;;;6.03;;
37231;SDS011;23125;48.156;15.954;2023-12-14T01:28:07;11.18;;;7.03;;
37231;SDS011;23125;48.156;15.954;2023-12-14T01:30:34;10.10;;;6.32;;
37231;SDS011;23125;48.156;15.954;2023-12-14T01:33:00;10.25;;;6.25;;
37231;SDS011;23125;48.156;15.954;2023-12-14T01:35:25;9.55;;;6.40;;
37231;SDS011;23125;48.156;15.954;2023-12-14T01:37:51;9.90;;;6.78;;
37231;SDS011;23125;48.156;15.954;2023-12-14T01:40:18;9.52;;;6.00;;
37231;SDS011;23125;48.156;15.954;2023-12-14T01:42:45;8.63;;;6.07;;
37231;SDS011;23125;48.156;15.954;2023-12-14T01:45:11;12.13;;;7.22;;
37231;SDS011;23125;48.156;15.954;2023-12-14T01:47:40;10.48;;;6.60;;
37231;SDS011;23125;48.156;15.954;2023-12-14T01:50:07;10.40;;;6.20;;
37231;SDS011;23125;48.156;15.954;2023-12-14T01:52:32;9.77;;;6.45;;
37231;SDS011;23125;48.156;15.954;2023-12-14T01:54:58;9.07;;;6.20;;
37231;SDS011;23125;48.156;15.954;2023-12-14T01:57:24;8.73;;;6.13;;
37231;SDS011;23125;48.156;15.954;2023-12-14T01:59:50;11.15;;;6.93;;
37231;SDS011;23125;48.156;15.954;2023-12-14T02:02:16;11.00;;;6.45;;
37231;SDS011;23125;48.156;15.954;2023-12-14T02:04:42;13.52;;;7.82;;
37231;SDS011;23125;48.156;15.954;2023-12-14T02:07:08;11.95;;;7.30;;
37231;SDS011;23125;48.156;15.954;2023-12-14T02:09:34;12.18;;;7.63;;
37231;SDS011;23125;48.156;15.954;2023-12-14T02:12:01;10.95;;;7.32;;
37231;SDS011;23125;48.156;15.954;2023-12-14T02:14:27;12.30;;;8.25;;
37231;SDS011;23125;48.156;15.954;2023-12-14T02:16:53;12.88;;;7.72;;
37231;SDS011;23125;48.156;15.954;2023-12-14T02:19:18;12.07;;;7.40;;
37231;SDS011;23125;48.156;15.954;2023-12-14T02:21:44;14.43;;;8.05;;
37231;SDS011;23125;48.156;15.954;2023-12-14T02:24:10;12.30;;;7.28;;
37231;SDS011;23125;48.156;15.954;2023-12-14T02:26:36;10.02;;;7.00;;
37231;SDS011;23125;48.156;15.954;2023-12-14T02:29:02;11.10;;;7.18;;
37231;SDS011;23125;48.156;15.954;2023-12-14T02:31:27;10.90;;;6.80;;
37231;SDS011;23125;48.156;15.954;2023-12-14T02:33:53;10.52;;;6.45;;
37231;SDS011;23125;48.156;15.954;2023-12-14T02:36:19;12.82;;;6.78;;
37231;SDS011;23125;48.156;15.954;2023-12-14T02:38:45;10.80;;;6.45;;
37231;SDS011;23125;48.156;15.954;2023-12-14T02:41:11;12.40;;;6.47;;
37231;SDS011;23125;48.156;15.954;2023-12-14T02:43:37;10.38;;;6.60;;
37231;SDS011;23125;48.156;15.954;2023-12-14T02:46:03;10.90;;;6.20;;
37231;SDS011;23125;48.156;15.954;2023-12-14T02:48:30;10.85;;;6.60;;
37231;SDS011;23125;48.156;15.954;2023-12-14T02:50:56;10.30;;;6.47;;
37231;SDS011;23125;48.156;15.954;2023-12-14T02:53:22;8.43;;;5.70;;
37231;SDS011;23125;48.156;15.954;2023-12-14T02:55:48;7.75;;;5.53;;
37231;SDS011;23125;48.156;15.954;2023-12-14T02:58:13;8.02;;;5.13;;
37231;SDS011;23125;48.156;15.954;2023-12-14T03:00:39;6.82;;;5.13;;
37231;SDS011;23125;48.156;15.954;2023-12-14T03:03:05;9.27;;;5.95;;
37231;SDS011;23125;48.156;15.954;2023-12-14T03:05:31;7.03;;;4.85;;
37231;SDS011;23125;48.156;15.954;2023-12-14T03:07:57;7.03;;;4.72;;
37231;SDS011;23125;48.156;15.954;2023-12-14T03:10:23;6.65;;;4.43;;
37231;SDS011;23125;48.156;15.954;2023-12-14T03:12:48;6.38;;;4.47;;
37231;SDS011;23125;48.156;15.954;2023-12-14T03:15:16;7.72;;;4.80;;
37231;SDS011;23125;48.156;15.954;2023-12-14T03:20:10;6.78;;;3.80;;
37231;SDS011;23125;48.156;15.954;2023-12-14T03:22:39;6.72;;;4.28;;
37231;SDS011;23125;48.156;15.954;2023-12-14T03:25:06;5.40;;;4.13;;
37231;SDS011;23125;48.156;15.954;2023-12-14T03:27:33;6.28;;;3.92;;
37231;SDS011;23125;48.156;15.954;2023-12-14T03:29:59;4.80;;;3.78;;
37231;SDS011;23125;48.156;15.954;2023-12-14T03:32:24;5.68;;;3.72;;
37231;SDS011;23125;48.156;15.954;2023-12-14T03:34:50;6.32;;;4.15;;
37231;SDS011;23125;48.156;15.954;2023-12-14T03:37:16;5.78;;;4.00;;
37231;SDS011;23125;48.156;15.954;2023-12-14T03:39:42;5.53;;;4.18;;
37231;SDS011;23125;48.156;15.954;2023-12-14T03:42:08;5.97;;;3.70;;
37231;SDS011;23125;48.156;15.954;2023-12-14T03:44:34;5.20;;;3.90;;
37231;SDS011;23125;48.156;15.954;2023-12-14T03:46:59;5.63;;;3.28;;
37231;SDS011;23125;48.156;15.954;2023-12-14T03:49:25;7.65;;;3.10;;
37231;SDS011;23125;48.156;15.954;2023-12-14T03:51:51;4.28;;;2.90;;
37231;SDS011;23125;48.156;15.954;2023-12-14T03:54:17;4.53;;;3.30;;
37231;SDS011;23125;48.156;15.954;2023-12-14T03:56:43;3.78;;;3.13;;
37231;SDS011;23125;48.156;15.954;2023-12-14T03:59:09;4.20;;;2.67;;
37231;SDS011;23125;48.156;15.954;2023-12-14T04:01:34;3.00;;;2.50;;
37231;SDS011;23125;48.156;15.954;2023-12-14T04:04:04;3.70;;;2.60;;
37231;SDS011;23125;48.156;15.954;2023-12-14T04:06:29;3.90;;;2.90;;
37231;SDS011;23125;48.156;15.954;2023-12-14T04:08:55;3.08;;;2.05;;
37231;SDS011;23125;48.156;15.954;2023-12-14T04:11:21;3.60;;;2.88;;
37231;SDS011;23125;48.156;15.954;2023-12-14T04:13:47;5.35;;;3.90;;
37231;SDS011;23125;48.156;15.954;2023-12-14T04:16:15;11.73;;;5.45;;
37231;SDS011;23125;48.156;15.954;2023-12-14T04:21:11;12.65;;;4.97;;
37231;SDS011;23125;48.156;15.954;2023-12-14T04:23:37;6.45;;;4.20;;
37231;SDS011;23125;48.156;15.954;2023-12-14T04:26:02;8.45;;;4.97;;
37231;SDS011;23125;48.156;15.954;2023-12-14T04:28:28;7.82;;;5.53;;
37231;SDS011;23125;48.156;15.954;2023-12-14T04:30:54;6.43;;;4.38;;
37231;SDS011;23125;48.156;15.954;2023-12-14T04:33:20;3.42;;;2.75;;
37231;SDS011;23125;48.156;15.954;2023-12-14T04:35:46;2.97;;;2.55;;
37231;SDS011;23125;48.156;15.954;2023-12-14T04:38:12;11.63;;;6.75;;
37231;SDS011;23125;48.156;15.954;2023-12-14T04:40:38;32.50;;;18.42;;
37231;SDS011;23125;48.156;15.954;2023-12-14T04:43:03;23.83;;;14.77;;
37231;SDS011;23125;48.156;15.954;2023-12-14T04:45:29;9.93;;;7.40;;
37231;SDS011;23125;48.156;15.954;2023-12-14T04:47:55;7.85;;;6.03;;
37231;SDS011;23125;48.156;15.954;2023-12-14T04:50:21;6.43;;;4.55;;
37231;SDS011;23125;48.156;15.954;2023-12-14T04:52:47;6.72;;;3.95;;
37231;SDS011;23125;48.156;15.954;2023-12-14T04:55:13;6.15;;;3.72;;
37231;SDS011;23125;48.156;15.954;2023-12-14T04:57:39;2.80;;;2.60;;
37231;SDS011;23125;48.156;15.954;2023-12-14T05:00:05;5.25;;;4.47;;
37231;SDS011;23125;48.156;15.954;2023-12-14T05:02:32;4.35;;;3.95;;
37231;SDS011;23125;48.156;15.954;2023-12-14T05:04:58;2.75;;;2.47;;
37231;SDS011;23125;48.156;15.954;2023-12-14T05:07:24;1.58;;;0.60;;
37231;SDS011;23125;48.156;15.954;2023-12-14T05:09:51;2.17;;;0.50;;
37231;SDS011;23125;48.156;15.954;2023-12-14T05:12:17;0.75;;;0.22;;
37231;SDS011;23125;48.156;15.954;2023-12-14T05:14:43;0.38;;;0.30;;
37231;SDS011;23125;48.156;15.954;2023-12-14T05:17:09;0.75;;;0.30;;
37231;SDS011;23125;48.156;15.954;2023-12-14T05:19:36;1.00;;;0.47;;
37231;SDS011;23125;48.156;15.954;2023-12-14T05:22:02;0.77;;;0.30;;
37231;SDS011;23125;48.156;15.954;2023-12-14T05:24:28;1.55;;;0.90;;
37231;SDS011;23125;48.156;15.954;2023-12-14T05:26:54;1.73;;;0.85;;
37231;SDS011;23125;48.156;15.954;2023-12-14T05:29:20;1.00;;;0.82;;
37231;SDS011;23125;48.156;15.954;2023-12-14T05:31:47;0.77;;;0.60;;
37231;SDS011;23125;48.156;15.954;2023-12-14T05:34:13;2.08;;;0.77;;
37231;SDS011;23125;48.156;15.954;2023-12-14T05:36:39;1.30;;;0.57;;
37231;SDS011;23125;48.156;15.954;2023-12-14T05:39:05;2.60;;;0.57;;
37231;SDS011;23125;48.156;15.954;2023-12-14T05:41:30;0.82;;;0.60;;
37231;SDS011;23125;48.156;15.954;2023-12-14T05:43:56;1.90;;;0.70;;
37231;SDS011;23125;48.156;15.954;2023-12-14T05:46:22;0.80;;;0.40;;
37231;SDS011;23125;48.156;15.954;2023-12-14T05:48:50;0.80;;;0.60;;
37231;SDS011;23125;48.156;15.954;2023-12-14T05:51:27;5.97;;;2.38;;
37231;SDS011;23125;48.156;15.954;2023-12-14T05:53:53;11.60;;;3.65;;
37231;SDS011;23125;48.156;15.954;2023-12-14T05:56:19;14.65;;;4.47;;
37231;SDS011;23125;48.156;15.954;2023-12-14T05:58:45;11.88;;;5.00;;
37231;SDS011;23125;48.156;15.954;2023-12-14T06:01:11;5.88;;;1.90;;
37231;SDS011;23125;48.156;15.954;2023-12-14T06:03:36;3.45;;;1.85;;
37231;SDS011;23125;48.156;15.954;2023-12-14T06:06:02;2.42;;;0.70;;
37231;SDS011;23125;48.156;15.954;2023-12-14T06:08:28;1.70;;;0.73;;
37231;SDS011;23125;48.156;15.954;2023-12-14T06:10:54;0.55;;;0.15;;
37231;SDS011;23125;48.156;15.954;2023-12-14T06:13:20;0.73;;;0.32;;
37231;SDS011;23125;48.156;15.954;2023-12-14T06:15:46;1.02;;;0.47;;
37231;SDS011;23125;48.156;15.954;2023-12-14T06:18:12;0.35;;;0.20;;
37231;SDS011;23125;48.156;15.954;2023-12-14T06:20:39;0.20;;;0.10;;
37231;SDS011;23125;48.156;15.954;2023-12-14T06:23:06;0.40;;;0.20;;
37231;SDS011;23125;48.156;15.954;2023-12-14T06:25:31;0.80;;;0.30;;
37231;SDS011;23125;48.156;15.954;2023-12-14T06:27:57;1.90;;;0.20;;
37231;SDS011;23125;48.156;15.954;2023-12-14T06:30:23;0.57;;;0.20;;
37231;SDS011;23125;48.156;15.954;2023-12-14T06:32:49;0.17;;;0.10;;
37231;SDS011;23125;48.156;15.954;2023-12-14T06:35:15;2.28;;;0.75;;
37231;SDS011;23125;48.156;15.954;2023-12-14T06:37:41;2.63;;;0.98;;
37231;SDS011;23125;48.156;15.954;2023-12-14T06:40:09;11.07;;;4.43;;
37231;SDS011;23125;48.156;15.954;2023-12-14T06:42:36;19.17;;;7.43;;
37231;SDS011;23125;48.156;15.954;2023-12-14T06:45:02;15.73;;;6.78;;
37231;SDS011;23125;48.156;15.954;2023-12-14T06:47:28;10.50;;;4.72;;
37231;SDS011;23125;48.156;15.954;2023-12-14T06:49:54;5.75;;;1.95;;
37231;SDS011;23125;48.156;15.954;2023-12-14T06:52:22;2.25;;;1.02;;
37231;SDS011;23125;48.156;15.954;2023-12-14T06:54:48;0.70;;;0.40;;
37231;SDS011;23125;48.156;15.954;2023-12-14T06:57:14;0.60;;;0.40;;
37231;SDS011;23125;48.156;15.954;2023-12-14T06:59:40;0.45;;;0.40;;
37231;SDS011;23125;48.156;15.954;2023-12-14T07:02:06;0.75;;;0.40;;
37231;SDS011;23125;48.156;15.954;2023-12-14T07:04:32;3.45;;;0.98;;
37231;SDS011;23125;48.156;15.954;2023-12-14T07:06:58;3.05;;;1.45;;
37231;SDS011;23125;48.156;15.954;2023-12-14T07:09:25;5.35;;;2.00;;
37231;SDS011;23125;48.156;15.954;2023-12-14T07:11:51;4.93;;;1.92;;
37231;SDS011;23125;48.156;15.954;2023-12-14T07:14:17;4.38;;;2.28;;
37231;SDS011;23125;48.156;15.954;2023-12-14T07:16:44;6.10;;;3.15;;
37231;SDS011;23125;48.156;15.954;2023-12-14T07:19:10;5.53;;;3.08;;
37231;SDS011;23125;48.156;15.954;2023-12-14T07:21:37;5.60;;;3.28;;
37231;SDS011;23125;48.156;15.954;2023-12-14T07:24:03;2.05;;;1.42;;
37231;SDS011;23125;48.156;15.954;2023-12-14T07:26:29;1.08;;;0.80;;
37231;SDS011;23125;48.156;15.954;2023-12-14T07:28:55;1.77;;;1.52;;
37231;SDS011;23125;48.156;15.954;2023-12-14T07:31:21;2.00;;;1.33;;
37231;SDS011;23125;48.156;15.954;2023-12-14T07:33:46;2.75;;;1.10;;
37231;SDS011;23125;48.156;15.954;2023-12-14T07:36:13;2.28;;;1.02;;
37231;SDS011;23125;48.156;15.954;2023-12-14T07:38:39;2.65;;;1.38;;
37231;SDS011;23125;48.156;15.954;2023-12-14T07:41:04;1.25;;;0.63;;
37231;SDS011;23125;48.156;15.954;2023-12-14T07:43:30;3.95;;;1.90;;
37231;SDS011;23125;48.156;15.954;2023-12-14T07:45:57;3.38;;;1.63;;
37231;SDS011;23125;48.156;15.954;2023-12-14T07:48:23;5.80;;;2.70;;
37231;SDS011;23125;48.156;15.954;2023-12-14T07:50:49;5.85;;;2.42;;
37231;SDS011;23125;48.156;15.954;2023-12-14T07:53:15;3.17;;;2.08;;
37231;SDS011;23125;48.156;15.954;2023-12-14T07:55:41;2.95;;;1.65;;
37231;SDS011;23125;48.156;15.954;2023-12-14T07:58:07;4.97;;;2.40;;
37231;SDS011;23125;48.156;15.954;2023-12-14T08:00:33;4.85;;;1.80;;
37231;SDS011;23125;48.156;15.954;2023-12-14T08:02:58;3.60;;;1.40;;
37231;SDS011;23125;48.156;15.954;2023-12-14T08:05:25;2.60;;;1.13;;
37231;SDS011;23125;48.156;15.954;2023-12-14T08:07:51;2.95;;;1.40;;
37231;SDS011;23125;48.156;15.954;2023-12-14T08:10:17;3.90;;;1.55;;
37231;SDS011;23125;48.156;15.954;2023-12-14T08:12:44;4.60;;;1.70;;
37231;SDS011;23125;48.156;15.954;2023-12-14T08:15:12;2.70;;;0.70;;
37231;SDS011;23125;48.156;15.954;2023-12-14T08:17:38;3.33;;;1.45;;
37231;SDS011;23125;48.156;15.954;2023-12-14T08:20:04;1.33;;;0.80;;
37231;SDS011;23125;48.156;15.954;2023-12-14T08:22:34;5.03;;;1.23;;
37231;SDS011;23125;48.156;15.954;2023-12-14T08:25:00;1.63;;;0.80;;
37231;SDS011;23125;48.156;15.954;2023-12-14T08:27:26;1.75;;;0.90;;
37231;SDS011;23125;48.156;15.954;2023-12-14T08:29:52;1.77;;;1.15;;
37231;SDS011;23125;48.156;15.954;2023-12-14T08:32:18;1.42;;;0.80;;
37231;SDS011;23125;48.156;15.954;2023-12-14T08:34:44;1.65;;;0.60;;
37231;SDS011;23125;48.156;15.954;2023-12-14T08:37:10;0.90;;;0.43;;
37231;SDS011;23125;48.156;15.954;2023-12-14T08:39:36;0.80;;;0.50;;
37231;SDS011;23125;48.156;15.954;2023-12-14T08:42:02;1.38;;;0.43;;
37231;SDS011;23125;48.156;15.954;2023-12-14T08:44:28;1.85;;;0.40;;
37231;SDS011;23125;48.156;15.954;2023-12-14T08:46:53;1.48;;;0.70;;
37231;SDS011;23125;48.156;15.954;2023-12-14T08:49:19;1.73;;;0.70;;
37231;SDS011;23125;48.156;15.954;2023-12-14T08:51:45;0.90;;;0.40;;
37231;SDS011;23125;48.156;15.954;2023-12-14T08:54:11;0.85;;;0.60;;
37231;SDS011;23125;48.156;15.954;2023-12-14T08:56:37;1.25;;;0.68;;
37231;SDS011;23125;48.156;15.954;2023-12-14T08:59:03;1.38;;;0.50;;
37231;SDS011;23125;48.156;15.954;2023-12-14T09:01:29;1.35;;;0.70;;
37231;SDS011;23125;48.156;15.954;2023-12-14T09:03:54;1.00;;;0.43;;
37231;SDS011;23125;48.156;15.954;2023-12-14T09:06:20;1.35;;;0.50;;
37231;SDS011;23125;48.156;15.954;2023-12-14T09:08:46;0.75;;;0.40;;
37231;SDS011;23125;48.156;15.954;2023-12-14T09:11:12;0.95;;;0.38;;
37231;SDS011;23125;48.156;15.954;2023-12-14T09:13:40;0.75;;;0.40;;
37231;SDS011;23125;48.156;15.954;2023-12-14T09:16:07;0.45;;;0.30;;
37231;SDS011;23125;48.156;15.954;2023-12-14T09:18:33;0.73;;;0.28;;
37231;SDS011;23125;48.156;15.954;2023-12-14T09:20:59;0.30;;;0.15;;
37231;SDS011;23125;48.156;15.954;2023-12-14T09:23:25;0.55;;;0.30;;
37231;SDS011;23125;48.156;15.954;2023-12-14T09:25:51;0.82;;;0.35;;
37231;SDS011;23125;48.156;15.954;2023-12-14T09:28:17;0.55;;;0.40;;
37231;SDS011;23125;48.156;15.954;2023-12-14T09:30:43;0.65;;;0.30;;
37231;SDS011;23125;48.156;15.954;2023-12-14T09:33:10;0.30;;;0.20;;
37231;SDS011;23125;48.156;15.954;2023-12-14T09:35:36;0.40;;;0.30;;
37231;SDS011;23125;48.156;15.954;2023-12-14T09:38:02;0.70;;;0.30;;
37231;SDS011;23125;48.156;15.954;2023-12-14T09:40:29;0.35;;;0.22;;
37231;SDS011;23125;48.156;15.954;2023-12-14T09:42:55;0.32;;;0.20;;
37231;SDS011;23125;48.156;15.954;2023-12-14T09:45:27;0.77;;;0.30;;
37231;SDS011;23125;48.156;15.954;2023-12-14T09:47:57;0.40;;;0.30;;
37231;SDS011;23125;48.156;15.954;2023-12-14T09:50:26;0.30;;;0.10;;
37231;SDS011;23125;48.156;15.954;2023-12-14T09:52:52;0.63;;;0.30;;
37231;SDS011;23125;48.156;15.954;2023-12-14T09:55:18;2.33;;;0.40;;
37231;SDS011;23125;48.156;15.954;2023-12-14T09:57:44;0.88;;;0.20;;
37231;SDS011;23125;48.156;15.954;2023-12-14T10:00:10;1.70;;;0.20;;
37231;SDS011;23125;48.156;15.954;2023-12-14T10:02:39;0.95;;;0.30;;
37231;SDS011;23125;48.156;15.954;2023-12-14T10:05:08;0.70;;;0.30;;
37231;SDS011;23125;48.156;15.954;2023-12-14T10:07:42;0.60;;;0.22;;
37231;SDS011;23125;48.156;15.954;2023-12-14T10:10:12;0.50;;;0.30;;
37231;SDS011;23125;48.156;15.954;2023-12-14T10:12:52;1.40;;;0.35;;
37231;SDS011;23125;48.156;15.954;2023-12-14T10:15:19;1.55;;;0.52;;
37231;SDS011;23125;48.156;15.954;2023-12-14T10:17:45;1.42;;;0.77;;
37231;SDS011;23125;48.156;15.954;2023-12-14T10:20:21;0.60;;;0.30;;
37231;SDS011;23125;48.156;15.954;2023-12-14T10:22:49;0.75;;;0.45;;
37231;SDS011;23125;48.156;15.954;2023-12-14T10:25:17;1.50;;;0.80;;
37231;SDS011;23125;48.156;15.954;2023-12-14T10:27:47;2.05;;;0.80;;
37231;SDS011;23125;48.156;15.954;2023-12-14T10:30:14;3.58;;;1.50;;
37231;SDS011;23125;48.156;15.954;2023-12-14T10:32:40;2.08;;;0.70;;
37231;SDS011;23125;48.156;15.954;2023-12-14T10:35:07;3.47;;;1.05;;
37231;SDS011;23125;48.156;15.954;2023-12-14T10:37:35;4.57;;;0.90;;
37231;SDS011;23125;48.156;15.954;2023-12-14T10:40:06;1.20;;;0.80;;
37231;SDS011;23125;48.156;15.954;2023-12-14T10:42:36;1.55;;;0.85;;
37231;SDS011;23125;48.156;15.954;2023-12-14T10:45:03;1.20;;;0.77;;
37231;SDS011;23125;48.156;15.954;2023-12-14T10:47:31;1.77;;;0.85;;
37231;SDS011;23125;48.156;15.954;2023-12-14T10:49:58;1.60;;;0.90;;
37231;SDS011;23125;48.156;15.954;2023-12-14T10:52:29;1.55;;;0.95;;
37231;SDS011;23125;48.156;15.954;2023-12-14T10:55:00;1.40;;;0.90;;
37231;SDS011;23125;48.156;15.954;2023-12-14T10:57:30;1.70;;;1.10;;
37231;SDS011;23125;48.156;15.954;2023-12-14T10:59:59;1.50;;;0.98;;
37231;SDS011;23125;48.156;15.954;2023-12-14T11:02:26;2.10;;;1.10;;
37231;SDS011;23125;48.156;15.954;2023-12-14T11:05:00;1.88;;;1.20;;
37231;SDS011;23125;48.156;15.954;2023-12-14T11:07:43;1.52;;;1.00;;
37231;SDS011;23125;48.156;15.954;2023-12-14T11:10:20;1.38;;;0.93;;
37231;SDS011;23125;48.156;15.954;2023-12-14T11:13:01;1.23;;;0.75;;
37231;SDS011;23125;48.156;15.954;2023-12-14T11:15:33;1.45;;;0.90;;
37231;SDS011;23125;48.156;15.954;2023-12-14T11:25:53;1.08;;;0.90;;
37231;SDS011;23125;48.156;15.954;2023-12-14T11:28:23;2.15;;;1.02;;
37231;SDS011;23125;48.156;15.954;2023-12-14T11:30:50;1.35;;;1.10;;
37231;SDS011;23125;48.156;15.954;2023-12-14T11:33:16;1.15;;;0.95;;
37231;SDS011;23125;48.156;15.954;2023-12-14T11:35:42;1.02;;;0.82;;
37231;SDS011;23125;48.156;15.954;2023-12-14T11:38:08;1.67;;;0.98;;
37231;SDS011;23125;48.156;15.954;2023-12-14T11:40:40;1.33;;;1.05;;
37231;SDS011;23125;48.156;15.954;2023-12-14T11:43:07;1.83;;;1.08;;
37231;SDS011;23125;48.156;15.954;2023-12-14T11:45:37;1.35;;;0.90;;
37231;SDS011;23125;48.156;15.954;2023-12-14T11:48:06;2.22;;;1.13;;
37231;SDS011;23125;48.156;15.954;2023-12-14T11:50:35;1.73;;;1.00;;
37231;SDS011;23125;48.156;15.954;2023-12-14T11:53:03;1.38;;;0.80;;
37231;SDS011;23125;48.156;15.954;2023-12-14T11:55:37;2.50;;;0.90;;
37231;SDS011;23125;48.156;15.954;2023-12-14T11:58:05;2.67;;;1.15;;
37231;SDS011;23125;48.156;15.954;2023-12-14T12:00:31;1.40;;;1.08;;
37231;SDS011;23125;48.156;15.954;2023-12-14T12:03:15;2.22;;;1.10;;
37231;SDS011;23125;48.156;15.954;2023-12-14T12:05:43;2.00;;;0.98;;
37231;SDS011;23125;48.156;15.954;2023-12-14T12:08:11;1.75;;;0.50;;
37231;SDS011;23125;48.156;15.954;2023-12-14T12:10:38;1.67;;;0.50;;
37231;SDS011;23125;48.156;15.954;2023-12-14T12:13:11;0.40;;;0.40;;
37231;SDS011;23125;48.156;15.954;2023-12-14T12:15:55;0.95;;;0.30;;
37231;SDS011;23125;48.156;15.954;2023-12-14T12:18:21;0.40;;;0.30;;
37231;SDS011;23125;48.156;15.954;2023-12-14T12:20:47;0.70;;;0.32;;
37231;SDS011;23125;48.156;15.954;2023-12-14T12:23:12;0.40;;;0.25;;
37231;SDS011;23125;48.156;15.954;2023-12-14T12:25:38;0.50;;;0.20;;
37231;SDS011;23125;48.156;15.954;2023-12-14T12:28:04;0.57;;;0.30;;
37231;SDS011;23125;48.156;15.954;2023-12-14T12:30:30;0.50;;;0.20;;
37231;SDS011;23125;48.156;15.954;2023-12-14T12:32:57;1.70;;;0.30;;
37231;SDS011;23125;48.156;15.954;2023-12-14T12:35:23;0.75;;;0.40;;
37231;SDS011;23125;48.156;15.954;2023-12-14T12:37:50;0.95;;;0.43;;
37231;SDS011;23125;48.156;15.954;2023-12-14T12:40:20;0.80;;;0.40;;
37231;SDS011;23125;48.156;15.954;2023-12-14T12:42:51;11.13;;;4.28;;
37231;SDS011;23125;48.156;15.954;2023-12-14T12:45:17;10.07;;;4.32;;
37231;SDS011;23125;48.156;15.954;2023-12-14T12:47:43;4.22;;;2.05;;
37231;SDS011;23125;48.156;15.954;2023-12-14T12:50:10;2.28;;;1.20;;
37231;SDS011;23125;48.156;15.954;2023-12-14T12:52:36;1.30;;;0.88;;
37231;SDS011;23125;48.156;15.954;2023-12-14T12:55:04;3.42;;;1.60;;
37231;SDS011;23125;48.156;15.954;2023-12-14T12:57:31;2.47;;;1.23;;
37231;SDS011;23125;48.156;15.954;2023-12-14T12:59:56;2.80;;;1.80;;
37231;SDS011;23125;48.156;15.954;2023-12-14T13:02:22;9.35;;;5.70;;
37231;SDS011;23125;48.156;15.954;2023-12-14T13:04:48;5.07;;;2.75;;
37231;SDS011;23125;48.156;15.954;2023-12-14T13:07:15;3.67;;;1.92;;
37231;SDS011;23125;48.156;15.954;2023-12-14T13:09:42;4.57;;;2.25;;
37231;SDS011;23125;48.156;15.954;2023-12-14T13:12:08;10.68;;;6.00;;
37231;SDS011;23125;48.156;15.954;2023-12-14T13:14:35;6.18;;;3.00;;
37231;SDS011;23125;48.156;15.954;2023-12-14T13:17:02;4.65;;;2.10;;
37231;SDS011;23125;48.156;15.954;2023-12-14T13:19:28;6.15;;;2.92;;
37231;SDS011;23125;48.156;15.954;2023-12-14T13:21:54;4.00;;;2.08;;
37231;SDS011;23125;48.156;15.954;2023-12-14T13:24:23;7.30;;;1.77;;
37231;SDS011;23125;48.156;15.954;2023-12-14T13:26:49;6.05;;;3.13;;
37231;SDS011;23125;48.156;15.954;2023-12-14T13:29:15;7.80;;;3.30;;
37231;SDS011;23125;48.156;15.954;2023-12-14T13:31:41;16.17;;;7.30;;
37231;SDS011;23125;48.156;15.954;2023-12-14T13:34:07;8.18;;;3.60;;
37231;SDS011;23125;48.156;15.954;2023-12-14T13:36:33;6.53;;;2.33;;
37231;SDS011;23125;48.156;15.954;2023-12-14T13:39:00;4.72;;;2.47;;
37231;SDS011;23125;48.156;15.954;2023-12-14T13:41:27;3.75;;;2.08;;
37231;SDS011;23125;48.156;15.954;2023-12-14T13:43:53;3.47;;;2.33;;
37231;SDS011;23125;48.156;15.954;2023-12-14T13:46:19;3.30;;;1.77;;
37231;SDS011;23125;48.156;15.954;2023-12-14T13:48:45;2.50;;;1.60;;
37231;SDS011;23125;48.156;15.954;2023-12-14T13:51:11;2.83;;;1.02;;
37231;SDS011;23125;48.156;15.954;2023-12-14T13:53:36;3.10;;;1.40;;
37231;SDS011;23125;48.156;15.954;2023-12-14T13:56:04;3.85;;;1.63;;
37231;SDS011;23125;48.156;15.954;2023-12-14T13:58:30;2.97;;;1.70;;
37231;SDS011;23125;48.156;15.954;2023-12-14T14:00:59;2.33;;;1.73;;
37231;SDS011;23125;48.156;15.954;2023-12-14T14:03:25;2.15;;;1.75;;
37231;SDS011;23125;48.156;15.954;2023-12-14T14:05:52;3.78;;;2.05;;
37231;SDS011;23125;48.156;15.954;2023-12-14T14:08:18;2.88;;;2.15;;
37231;SDS011;23125;48.156;15.954;2023-12-14T14:10:45;3.67;;;2.53;;
37231;SDS011;23125;48.156;15.954;2023-12-14T14:13:11;3.90;;;2.85;;
37231;SDS011;23125;48.156;15.954;2023-12-14T14:15:37;4.13;;;2.58;;
37231;SDS011;23125;48.156;15.954;2023-12-14T14:18:03;2.70;;;2.13;;
37231;SDS011;23125;48.156;15.954;2023-12-14T14:20:28;3.30;;;2.80;;
37231;SDS011;23125;48.156;15.954;2023-12-14T14:22:54;3.55;;;2.63;;
37231;SDS011;23125;48.156;15.954;2023-12-14T14:25:24;2.85;;;2.30;;
37231;SDS011;23125;48.156;15.954;2023-12-14T14:27:50;3.23;;;2.67;;
37231;SDS011;23125;48.156;15.954;2023-12-14T14:30:16;2.88;;;2.10;;
37231;SDS011;23125;48.156;15.954;2023-12-14T14:32:42;4.55;;;2.40;;
37231;SDS011;23125;48.156;15.954;2023-12-14T14:35:08;4.18;;;3.35;;
37231;SDS011;23125;48.156;15.954;2023-12-14T14:37:33;16.20;;;7.15;;
37231;SDS011;23125;48.156;15.954;2023-12-14T14:40:00;32.50;;;13.02;;